Terminal Aerodrome Forecast
Issued by NWS

Home | Current Version | Previous Version | Text Only | Print | Product List | Glossary On
Versions: 1 2 3 4 5 6 7 8 9 10 11 12 13 14 15 16 17 18 19 20
000
FTAK31 PAJN 180520
TAFASI
TAF
PASI 180520Z 1806/1906 16010KT 5SM -SHRA BR SCT005 OVC025
      TEMPO 1806/1810 2SM SHRA BR SCT005 BKN009 OVC020
     FM181000 19010KT 4SM -SHRA BR SCT005 OVC015
     FM181600 22008KT 3SM SHRA BR SCT010 OVC025
     FM182300 21008KT 6SM -SHRA BR SCT025 OVC035=

USA.gov is the U.S. government's official web portal to all federal, state and local government web resources and services.